NCAR-RAP Real-Time Weather Data

Output produced by METARs form (22 June 2018  20:47 UTC)
found at http://weather.rap.ucar.edu/surface/
 
Conditions at: KSRQ observed 22 June 2018  19:53 UTC
Temperature: 32.2°C (90°F)
Dewpoint: 24.4°C (76°F) [RH = 64%]
Pressure (altimeter): 29.96 inches Hg (1014.6 mb)
[Sea-level pressure: 1014.4 mb]
Winds: from the W (280 degrees) at 13 MPH (11 knots; 5.7 m/s)
Visibility: 10 or more miles (16+ km)
Ceiling: at least 12,000 feet AGL
Clouds: sky clear below 12,000 feet AGL
Present Weather: automated observation with no human augmentation;
there may or may not be significant weather present at this time
KSRQ 221953Z AUTO 28011KT 10SM CLR 32/24 A2996 RMK AO2 SLP144 T03220244

Conditions at: KSRQ observed 22 June 2018  18:53 UTC
Temperature: 31.7°C (89°F)
Dewpoint: 24.4°C (76°F) [RH = 65%]
Pressure (altimeter): 29.97 inches Hg (1015.0 mb)
[Sea-level pressure: 1014.9 mb]
Winds: from the W (270 degrees) at 14 MPH (12 knots; 6.2 m/s)
Visibility: 10 or more miles (16+ km)
Ceiling: at least 12,000 feet AGL
Clouds: sky clear below 12,000 feet AGL
Present Weather: automated observation with no human augmentation;
there may or may not be significant weather present at this time
KSRQ 221853Z AUTO 27012KT 10SM CLR 32/24 A2997 RMK AO2 SLP149 T03170244

Conditions at: KSRQ observed 22 June 2018  17:53 UTC
Temperature: 32.2°C (90°F)
Dewpoint: 23.9°C (75°F) [RH = 62%]
Pressure (altimeter): 29.99 inches Hg (1015.7 mb)
[Sea-level pressure: 1015.4 mb]
Winds: from the W (280 degrees) at 14 MPH (12 knots; 6.2 m/s)
Visibility: 10 or more miles (16+ km)
Ceiling: at least 12,000 feet AGL
Clouds: sky clear below 12,000 feet AGL
Present Weather: automated observation with no human augmentation;
there may or may not be significant weather present at this time
KSRQ 221753Z AUTO 28012KT 10SM CLR 32/24 A2999 RMK AO2 SLP154 T03220239 10322 20289 58003

Conditions at: KSRQ observed 22 June 2018  16:53 UTC
Temperature: 31.7°C (89°F)
Dewpoint: 24.4°C (76°F) [RH = 65%]
Pressure (altimeter): 30.00 inches Hg (1016.0 mb)
[Sea-level pressure: 1015.7 mb]
Winds: from the W (260 degrees) at 13 MPH (11 knots; 5.7 m/s)
Visibility: 10 or more miles (16+ km)
Ceiling: at least 12,000 feet AGL
Clouds: sky clear below 12,000 feet AGL
Present Weather: automated observation with no human augmentation;
there may or may not be significant weather present at this time
KSRQ 221653Z AUTO 26011KT 10SM CLR 32/24 A3000 RMK AO2 SLP157 T03170244

Conditions at: KSRQ observed 22 June 2018  15:53 UTC
Temperature: 31.7°C (89°F)
Dewpoint: 24.4°C (76°F) [RH = 65%]
Pressure (altimeter): 30.00 inches Hg (1016.0 mb)
[Sea-level pressure: 1015.7 mb]
Winds: from the W (280 degrees) at 10 MPH (9 knots; 4.7 m/s)
Visibility: 10 or more miles (16+ km)
Ceiling: at least 12,000 feet AGL
Clouds: sky clear below 12,000 feet AGL
Present Weather: automated observation with no human augmentation;
there may or may not be significant weather present at this time
KSRQ 221553Z AUTO 28009KT 10SM CLR 32/24 A3000 RMK AO2 SLP157 T03170244

Conditions at: KSRQ observed 22 June 2018  14:53 UTC
Temperature: 31.1°C (88°F)
Dewpoint: 23.9°C (75°F) [RH = 66%]
Pressure (altimeter): 30.00 inches Hg (1016.0 mb)
[Sea-level pressure: 1015.7 mb]
Winds: from the W (280 degrees) at 12 MPH (10 knots; 5.2 m/s)
Visibility: 10 or more miles (16+ km)
Ceiling: at least 12,000 feet AGL
Clouds: sky clear below 12,000 feet AGL
Present Weather: automated observation with no human augmentation;
there may or may not be significant weather present at this time
KSRQ 221453Z AUTO 28010KT 10SM CLR 31/24 A3000 RMK AO2 SLP157 T03110239 51008

Conditions at: KSRQ observed 22 June 2018  13:53 UTC
Temperature: 30.6°C (87°F)
Dewpoint: 23.9°C (75°F) [RH = 68%]
Pressure (altimeter): 29.99 inches Hg (1015.7 mb)
[Sea-level pressure: 1015.5 mb]
Winds: from the W (270 degrees) at 10 MPH (9 knots; 4.7 m/s)
Visibility: 10 or more miles (16+ km)
Ceiling: at least 12,000 feet AGL
Clouds: sky clear below 12,000 feet AGL
Present Weather: automated observation with no human augmentation;
there may or may not be significant weather present at this time
KSRQ 221353Z AUTO 27009KT 10SM CLR 31/24 A2999 RMK AO2 SLP155 T03060239

Conditions at: KSRQ observed 22 June 2018  13:22 UTC
Temperature: 30.0°C (86°F)
Dewpoint: 23.9°C (75°F) [RH = 70%]
Pressure (altimeter): 29.99 inches Hg (1015.7 mb)
Winds: from the W (280 degrees) at 10 MPH (9 knots; 4.7 m/s)
Visibility: 10 or more miles (16+ km)
Ceiling: at least 12,000 feet AGL
Clouds: few clouds at 2500 feet AGL
Present Weather: automated observation with no human augmentation;
there may or may not be significant weather present at this time
KSRQ 221322Z AUTO 28009KT 10SM FEW025 30/24 A2999 RMK AO2 LTG DSNT SE AND S T03000239

Conditions at: KSRQ observed 22 June 2018  13:07 UTC
Temperature: 30.0°C (86°F)
Dewpoint: 23.9°C (75°F) [RH = 70%]
Pressure (altimeter): 29.99 inches Hg (1015.7 mb)
Winds: from the W (280 degrees) at 12 MPH (10 knots; 5.2 m/s)
Visibility: 10 or more miles (16+ km)
Ceiling: at least 12,000 feet AGL
Clouds: scattered clouds at 2500 feet AGL
Present Weather: VCTS  (thunderstorm in vicinity)
KSRQ 221307Z AUTO 28010KT 10SM VCTS SCT025 30/24 A2999 RMK AO2 LTG DSNT SE T03000239

Conditions at: KSRQ observed 22 June 2018  12:53 UTC
Temperature: 29.4°C (85°F)
Dewpoint: 23.9°C (75°F) [RH = 72%]
Pressure (altimeter): 29.99 inches Hg (1015.7 mb)
[Sea-level pressure: 1015.4 mb]
Winds: from the W (270 degrees) at 12 MPH (10 knots; 5.2 m/s)
Visibility: 10 or more miles (16+ km)
Ceiling: at least 12,000 feet AGL
Clouds: scattered clouds at 2300 feet AGL
scattered clouds at 2900 feet AGL
Present Weather: automated observation with no human augmentation;
there may or may not be significant weather present at this time
KSRQ 221253Z AUTO 27010KT 10SM SCT023 SCT029 29/24 A2999 RMK AO2 SLP154 T02940239

Conditions at: KSRQ observed 22 June 2018  11:53 UTC
Temperature: 28.9°C (84°F)
Dewpoint: 23.9°C (75°F) [RH = 74%]
Pressure (altimeter): 29.97 inches Hg (1015.0 mb)
[Sea-level pressure: 1014.9 mb]
Winds: from the W (280 degrees) at 9 MPH (8 knots; 4.2 m/s)
Visibility: 10 or more miles (16+ km)
Ceiling: at least 12,000 feet AGL
Clouds: few clouds at 2300 feet AGL
Present Weather: automated observation with no human augmentation;
there may or may not be significant weather present at this time
KSRQ 221153Z AUTO 28008KT 10SM FEW023 29/24 A2997 RMK AO2 SLP149 7//// T02890239 10289 20278 53019

Conditions at: KSRQ observed 22 June 2018  10:53 UTC
Temperature: 28.3°C (83°F)
Dewpoint: 23.3°C (74°F) [RH = 74%]
Pressure (altimeter): 29.95 inches Hg (1014.3 mb)
[Sea-level pressure: 1014.1 mb]
Winds: from the W (270 degrees) at 9 MPH (8 knots; 4.2 m/s)
Visibility: 10 or more miles (16+ km)
Ceiling: at least 12,000 feet AGL
Clouds: few clouds at 2300 feet AGL
Present Weather: automated observation with no human augmentation;
there may or may not be significant weather present at this time
KSRQ 221053Z AUTO 27008KT 10SM FEW023 28/23 A2995 RMK AO2 SLP141 T02830233

Conditions at: KSRQ observed 22 June 2018  09:53 UTC
Temperature: 28.3°C (83°F)
Dewpoint: 23.9°C (75°F) [RH = 77%]
Pressure (altimeter): 29.93 inches Hg (1013.6 mb)
[Sea-level pressure: 1013.5 mb]
Winds: from the W (280 degrees) at 7 MPH (6 knots; 3.1 m/s)
Visibility: 10 or more miles (16+ km)
Ceiling: at least 12,000 feet AGL
Clouds: few clouds at 2400 feet AGL
Present Weather: automated observation with no human augmentation;
there may or may not be significant weather present at this time
KSRQ 220953Z AUTO 28006KT 10SM FEW024 28/24 A2993 RMK AO2 SLP135 T02830239

Conditions at: KSRQ observed 22 June 2018  09:20 UTC
Temperature: 28.3°C (83°F)
Dewpoint: 23.9°C (75°F) [RH = 77%]
Pressure (altimeter): 29.92 inches Hg (1013.3 mb)
Winds: from the W (260 degrees) at 9 MPH (8 knots; 4.2 m/s)
Visibility: 10 or more miles (16+ km)
Ceiling: at least 12,000 feet AGL
Clouds: few clouds at 2100 feet AGL
scattered clouds at 3000 feet AGL
Present Weather: automated observation with no human augmentation;
there may or may not be significant weather present at this time
KSRQ 220920Z AUTO 26008KT 10SM FEW021 SCT030 28/24 A2992 RMK AO2 T02830239

Conditions at: KSRQ observed 22 June 2018  09:10 UTC
Temperature: 28.3°C (83°F)
Dewpoint: 24.4°C (76°F) [RH = 79%]
Pressure (altimeter): 29.92 inches Hg (1013.3 mb)
Winds: from the W (280 degrees) at 9 MPH (8 knots; 4.2 m/s)
Visibility: 10 or more miles (16+ km)
Ceiling: 2900 feet AGL
Clouds: scattered clouds at 2100 feet AGL
broken clouds at 2900 feet AGL
broken clouds at 3400 feet AGL
Present Weather: automated observation with no human augmentation;
there may or may not be significant weather present at this time
KSRQ 220910Z AUTO 28008KT 10SM SCT021 BKN029 BKN034 28/24 A2992 RMK AO2 T02830244

Conditions at: KSRQ observed 22 June 2018  08:53 UTC
Temperature: 28.3°C (83°F)
Dewpoint: 24.4°C (76°F) [RH = 79%]
Pressure (altimeter): 29.92 inches Hg (1013.3 mb)
[Sea-level pressure: 1013.0 mb]
Winds: from the WSW (240 degrees) at 8 MPH (7 knots; 3.6 m/s)
Visibility: 10 or more miles (16+ km)
Ceiling: at least 12,000 feet AGL
Clouds: few clouds at 2100 feet AGL
few clouds at 2800 feet AGL
Present Weather: automated observation with no human augmentation;
there may or may not be significant weather present at this time
KSRQ 220853Z AUTO 24007KT 10SM FEW021 FEW028 28/24 A2992 RMK AO2 SLP130 T02830244 55006

Conditions at: KSRQ observed 22 June 2018  07:53 UTC
Temperature: 28.3°C (83°F)
Dewpoint: 23.9°C (75°F) [RH = 77%]
Pressure (altimeter): 29.91 inches Hg (1013.0 mb)
[Sea-level pressure: 1012.8 mb]
Winds: from the W (260 degrees) at 8 MPH (7 knots; 3.6 m/s)
Visibility: 10 or more miles (16+ km)
Ceiling: at least 12,000 feet AGL
Clouds: few clouds at 2200 feet AGL
Present Weather: automated observation with no human augmentation;
there may or may not be significant weather present at this time
KSRQ 220753Z AUTO 26007KT 10SM FEW022 28/24 A2991 RMK AO2 SLP128 T02830239

Conditions at: KSRQ observed 22 June 2018  06:53 UTC
Temperature: 28.3°C (83°F)
Dewpoint: 24.4°C (76°F) [RH = 79%]
Pressure (altimeter): 29.92 inches Hg (1013.3 mb)
[Sea-level pressure: 1013.2 mb]
Winds: from the W (260 degrees) at 8 MPH (7 knots; 3.6 m/s)
Visibility: 10 or more miles (16+ km)
Ceiling: at least 12,000 feet AGL
Clouds: few clouds at 2000 feet AGL
Present Weather: automated observation with no human augmentation;
there may or may not be significant weather present at this time
KSRQ 220653Z AUTO 26007KT 10SM FEW020 28/24 A2992 RMK AO2 SLP132 T02830244

Conditions at: KSRQ observed 22 June 2018  05:53 UTC
Temperature: 28.3°C (83°F)
Dewpoint: 24.4°C (76°F) [RH = 79%]
Pressure (altimeter): 29.94 inches Hg (1014.0 mb)
[Sea-level pressure: 1013.7 mb]
Winds: from the W (260 degrees) at 9 MPH (8 knots; 4.2 m/s)
Visibility: 10 or more miles (16+ km)
Ceiling: at least 12,000 feet AGL
Clouds: few clouds at 2000 feet AGL
Present Weather: automated observation with no human augmentation;
there may or may not be significant weather present at this time
KSRQ 220553Z AUTO 26008KT 10SM FEW020 28/24 A2994 RMK AO2 SLP137 T02830244 10300 20283 58009

Conditions at: KSRQ observed 22 June 2018  04:53 UTC
Temperature: 28.3°C (83°F)
Dewpoint: 24.4°C (76°F) [RH = 79%]
Pressure (altimeter): 29.95 inches Hg (1014.3 mb)
[Sea-level pressure: 1014.2 mb]
Winds: from the W (280 degrees) at 9 MPH (8 knots; 4.2 m/s)
Visibility: 10 or more miles (16+ km)
Ceiling: at least 12,000 feet AGL
Clouds: sky clear below 12,000 feet AGL
Present Weather: automated observation with no human augmentation;
there may or may not be significant weather present at this time
KSRQ 220453Z AUTO 28008KT 10SM CLR 28/24 A2995 RMK AO2 SLP142 T02830244 403280261

Conditions at: KSRQ observed 22 June 2018  03:53 UTC
Temperature: 28.9°C (84°F)
Dewpoint: 24.4°C (76°F) [RH = 77%]
Pressure (altimeter): 29.97 inches Hg (1015.0 mb)
[Sea-level pressure: 1014.7 mb]
Winds: from the W (280 degrees) at 8 MPH (7 knots; 3.6 m/s)
Visibility: 10 or more miles (16+ km)
Ceiling: at least 12,000 feet AGL
Clouds: few clouds at 2300 feet AGL
Present Weather: automated observation with no human augmentation;
there may or may not be significant weather present at this time
KSRQ 220353Z AUTO 28007KT 10SM FEW023 29/24 A2997 RMK AO2 SLP147 T02890244

Conditions at: KSRQ observed 22 June 2018  02:53 UTC
Temperature: 28.9°C (84°F)
Dewpoint: 23.9°C (75°F) [RH = 74%]
Pressure (altimeter): 29.96 inches Hg (1014.6 mb)
[Sea-level pressure: 1014.6 mb]
Winds: from the WNW (300 degrees) at 10 MPH (9 knots; 4.7 m/s)
Visibility: 10 or more miles (16+ km)
Ceiling: at least 12,000 feet AGL
Clouds: few clouds at 2300 feet AGL
Present Weather: automated observation with no human augmentation;
there may or may not be significant weather present at this time
KSRQ 220253Z AUTO 30009KT 10SM FEW023 29/24 A2996 RMK AO2 SLP146 T02890239 53014

Conditions at: KSRQ observed 22 June 2018  01:53 UTC
Temperature: 28.9°C (84°F)
Dewpoint: 23.3°C (74°F) [RH = 72%]
Pressure (altimeter): 29.95 inches Hg (1014.3 mb)
[Sea-level pressure: 1014.2 mb]
Winds: from the W (270 degrees) at 10 MPH (9 knots; 4.7 m/s)
Visibility: 10 or more miles (16+ km)
Ceiling: at least 12,000 feet AGL
Clouds: sky clear below 12,000 feet AGL
Present Weather: automated observation with no human augmentation;
there may or may not be significant weather present at this time
KSRQ 220153Z AUTO 27009KT 10SM CLR 29/23 A2995 RMK AO2 SLP142 T02890233

Conditions at: KSRQ observed 22 June 2018  00:53 UTC
Temperature: 28.9°C (84°F)
Dewpoint: 22.8°C (73°F) [RH = 70%]
Pressure (altimeter): 29.93 inches Hg (1013.6 mb)
[Sea-level pressure: 1013.6 mb]
Winds: from the W (280 degrees) at 8 MPH (7 knots; 3.6 m/s)
Visibility: 10 or more miles (16+ km)
Ceiling: at least 12,000 feet AGL
Clouds: sky clear below 12,000 feet AGL
Present Weather: automated observation with no human augmentation;
there may or may not be significant weather present at this time
KSRQ 220053Z AUTO 28007KT 10SM CLR 29/23 A2993 RMK AO2 SLP136 T02890228

Conditions at: KSRQ observed 21 June 2018  23:53 UTC
Temperature: 30.0°C (86°F)
Dewpoint: 23.3°C (74°F) [RH = 67%]
Pressure (altimeter): 29.92 inches Hg (1013.3 mb)
[Sea-level pressure: 1013.2 mb]
Winds: from the W (280 degrees) at 9 MPH (8 knots; 4.2 m/s)
Visibility: 10 or more miles (16+ km)
Ceiling: at least 12,000 feet AGL
Clouds: sky clear below 12,000 feet AGL
Present Weather: automated observation with no human augmentation;
there may or may not be significant weather present at this time
KSRQ 212353Z AUTO 28008KT 10SM CLR 30/23 A2992 RMK AO2 SLP132 T03000233 10328 20300 53002

Conditions at: KSRQ observed 21 June 2018  22:53 UTC
Temperature: 30.0°C (86°F)
Dewpoint: 23.9°C (75°F) [RH = 70%]
Pressure (altimeter): 29.92 inches Hg (1013.3 mb)
[Sea-level pressure: 1013.0 mb]
Winds: from the WNW (300 degrees) at 12 MPH (10 knots; 5.2 m/s)
Visibility: 10 or more miles (16+ km)
Ceiling: at least 12,000 feet AGL
Clouds: few clouds at 2500 feet AGL
Present Weather: automated observation with no human augmentation;
there may or may not be significant weather present at this time
KSRQ 212253Z AUTO 30010KT 10SM FEW025 30/24 A2992 RMK AO2 SLP130 T03000239

Conditions at: KSRQ observed 21 June 2018  21:53 UTC
Temperature: 31.1°C (88°F)
Dewpoint: 24.4°C (76°F) [RH = 68%]
Pressure (altimeter): 29.91 inches Hg (1013.0 mb)
[Sea-level pressure: 1012.7 mb]
Winds: from the W (270 degrees) at 12 MPH (10 knots; 5.2 m/s)
Visibility: 10 or more miles (16+ km)
Ceiling: at least 12,000 feet AGL
Clouds: sky clear below 12,000 feet AGL
Present Weather: automated observation with no human augmentation;
there may or may not be significant weather present at this time
KSRQ 212153Z AUTO 27010KT 10SM CLR 31/24 A2991 RMK AO2 SLP127 T03110244

Conditions at: KSRQ observed 21 June 2018  20:53 UTC
Temperature: 31.1°C (88°F)
Dewpoint: 25.0°C (77°F) [RH = 70%]
Pressure (altimeter): 29.92 inches Hg (1013.3 mb)
[Sea-level pressure: 1013.0 mb]
Winds: from the W (270 degrees) at 13 MPH (11 knots; 5.7 m/s)
Visibility: 10 or more miles (16+ km)
Ceiling: at least 12,000 feet AGL
Clouds: sky clear below 12,000 feet AGL
Present Weather: automated observation with no human augmentation;
there may or may not be significant weather present at this time
KSRQ 212053Z AUTO 27011KT 10SM CLR 31/25 A2992 RMK AO2 SLP130 T03110250 55008